Time;durP1;ratioP1;P1;durP2;ratioP2;P2;SDS_P1;SDS_P2;PMS_P1;PMS_P2;Temp;Humidity;BMP_temperature;BMP_pressure;BME280_temperature;BME280_humidity;BME280_pressure;Samples;Min_cycle;Max_cycle;Signal;HPM_P1;HPM_P2
2021/01/20 00:02:00;;;;;;;17.20;3.58;;;;;;;;;;5054740;28;20029;-43
2021/01/20 00:04:27;;;;;;;16.10;3.50;;;;;;;;;;5064177;28;20028;-39
2021/01/20 00:06:54;;;;;;;20.25;3.92;;;;;;;;;;5064639;28;20514;-41
2021/01/20 00:09:21;;;;;;;11.02;3.60;;;;;;;;;;5057245;28;20554;-39
2021/01/20 00:11:48;;;;;;;15.13;3.00;;;;;;;;;;5059443;28;20404;-41
2021/01/20 00:14:15;;;;;;;18.55;3.40;;;;;;;;;;5058509;28;20028;-39
2021/01/20 00:16:42;;;;;;;17.20;3.40;;;;;;;;;;5059952;28;20017;-44
2021/01/20 00:19:10;;;;;;;11.77;2.92;;;;;;;;;;5059945;28;20033;-40
2021/01/20 00:21:37;;;;;;;14.55;3.35;;;;;;;;;;5059357;28;20021;-41
2021/01/20 00:24:04;;;;;;;16.98;3.53;;;;;;;;;;5052436;28;20048;-41
2021/01/20 00:26:31;;;;;;;14.25;3.15;;;;;;;;;;5053908;28;20025;-45
2021/01/20 00:28:58;;;;;;;18.13;3.30;;;;;;;;;;5051705;28;20025;-40
2021/01/20 00:31:30;;;;;;;17.52;4.13;;;;;;;;;;5053577;28;20032;-40
2021/01/20 00:33:57;;;;;;;10.07;3.30;;;;;;;;;;5053199;28;20353;-39
2021/01/20 00:36:24;;;;;;;15.25;3.15;;;;;;;;;;5052239;28;20024;-41
2021/01/20 00:38:51;;;;;;;18.38;3.60;;;;;;;;;;5052442;28;20107;-40
2021/01/20 00:41:18;;;;;;;15.32;3.35;;;;;;;;;;5053431;28;20036;-41
2021/01/20 00:43:45;;;;;;;12.70;3.13;;;;;;;;;;5053245;28;20496;-43
2021/01/20 00:46:12;;;;;;;16.30;3.28;;;;;;;;;;5058695;28;20040;-43
2021/01/20 00:48:39;;;;;;;16.50;2.95;;;;;;;;;;5058651;28;20100;-43
2021/01/20 00:51:06;;;;;;;18.83;3.38;;;;;;;;;;5051775;28;20446;-43
2021/01/20 00:53:33;;;;;;;14.45;3.40;;;;;;;;;;5055459;28;20116;-50
2021/01/20 00:56:00;;;;;;;14.15;3.30;;;;;;;;;;5059101;28;20031;-45
2021/01/20 00:58:27;;;;;;;15.63;3.00;;;;;;;;;;5056054;28;20036;-46
2021/01/20 01:00:54;;;;;;;20.40;4.40;;;;;;;;;;5059160;28;20029;-55
2021/01/20 01:03:21;;;;;;;21.13;3.33;;;;;;;;;;5058891;28;20483;-46
2021/01/20 01:05:48;;;;;;;25.75;3.63;;;;;;;;;;5051087;28;20033;-49
2021/01/20 01:08:15;;;;;;;21.05;3.05;;;;;;;;;;5053676;28;20200;-48
2021/01/20 01:10:42;;;;;;;17.17;2.75;;;;;;;;;;5065733;28;20048;-51
2021/01/20 01:13:09;;;;;;;19.70;2.47;;;;;;;;;;5057027;28;20030;-46
2021/01/20 01:15:36;;;;;;;13.18;2.33;;;;;;;;;;5058385;28;20532;-49
2021/01/20 01:20:38;;;;;;;13.40;2.20;;;;;;;;;;5000349;28;19929;-48
2021/01/20 01:23:05;;;;;;;14.98;2.60;;;;;;;;;;5025927;28;20055;-47
2021/01/20 01:25:32;;;;;;;15.15;2.00;;;;;;;;;;5025242;28;20048;-46
2021/01/20 01:27:59;;;;;;;19.55;2.10;;;;;;;;;;5032476;28;20033;-46
2021/01/20 01:30:26;;;;;;;10.23;1.50;;;;;;;;;;5032129;28;20038;-46
2021/01/20 01:32:53;;;;;;;13.15;1.38;;;;;;;;;;5034105;28;20017;-49
2021/01/20 01:35:20;;;;;;;15.35;1.70;;;;;;;;;;5033328;28;20032;-43
2021/01/20 01:37:47;;;;;;;10.57;1.42;;;;;;;;;;5022515;28;20061;-39
2021/01/20 01:40:14;;;;;;;14.32;1.33;;;;;;;;;;5032106;28;20025;-40
2021/01/20 01:42:41;;;;;;;10.68;1.20;;;;;;;;;;5028774;28;20096;-40
2021/01/20 01:45:09;;;;;;;4.63;1.08;;;;;;;;;;5030642;28;20033;-40
2021/01/20 01:47:36;;;;;;;13.43;1.05;;;;;;;;;;5033657;28;20026;-44
2021/01/20 01:50:03;;;;;;;10.43;1.88;;;;;;;;;;5028518;28;20038;-43
2021/01/20 01:52:30;;;;;;;13.30;1.17;;;;;;;;;;5033833;28;20040;-43
2021/01/20 01:54:57;;;;;;;7.07;0.85;;;;;;;;;;5011813;28;20025;-42
2021/01/20 01:57:24;;;;;;;13.20;1.35;;;;;;;;;;5027442;28;20026;-42
2021/01/20 01:59:51;;;;;;;11.40;1.30;;;;;;;;;;5028631;28;20029;-43
2021/01/20 02:02:18;;;;;;;8.65;1.00;;;;;;;;;;5031877;28;20033;-44
2021/01/20 02:04:45;;;;;;;9.90;1.00;;;;;;;;;;5026712;28;20036;-43
2021/01/20 02:07:13;;;;;;;8.48;0.73;;;;;;;;;;5033964;28;20061;-43
2021/01/20 02:09:40;;;;;;;4.32;0.80;;;;;;;;;;5031973;28;20060;-44
2021/01/20 02:12:12;;;;;;;6.97;1.00;;;;;;;;;;5031670;28;20100;-45
2021/01/20 02:14:42;;;;;;;4.65;0.93;;;;;;;;;;5028577;28;20075;-45
2021/01/20 02:17:27;;;;;;;5.93;0.85;;;;;;;;;;5034196;28;20022;-46
2021/01/20 02:20:04;;;;;;;2.83;0.80;;;;;;;;;;5016419;28;20564;-47
2021/01/20 02:22:33;;;;;;;4.78;0.75;;;;;;;;;;5009835;28;20034;-43
2021/01/20 02:25:19;;;;;;;5.65;1.10;;;;;;;;;;5009775;28;20029;-42
2021/01/20 02:27:52;;;;;;;5.85;0.98;;;;;;;;;;5011419;28;20030;-45
2021/01/20 02:30:20;;;;;;;4.40;1.00;;;;;;;;;;5010686;28;20486;-45
2021/01/20 02:32:47;;;;;;;5.57;0.90;;;;;;;;;;5011572;28;20092;-44
2021/01/20 02:35:15;;;;;;;11.10;1.63;;;;;;;;;;5011071;28;20053;-44
2021/01/20 02:37:42;;;;;;;12.23;1.20;;;;;;;;;;5011566;28;20010;-45
2021/01/20 02:40:09;;;;;;;13.60;1.00;;;;;;;;;;5010015;28;20030;-46
2021/01/20 02:42:46;;;;;;;5.95;1.60;;;;;;;;;;5006629;28;20057;-46
2021/01/20 02:45:14;;;;;;;7.30;1.10;;;;;;;;;;5005599;28;20034;-43
2021/01/20 02:47:42;;;;;;;5.18;1.33;;;;;;;;;;5007108;28;20442;-43
2021/01/20 02:50:09;;;;;;;5.38;1.20;;;;;;;;;;5011609;28;20034;-44
2021/01/20 02:52:55;;;;;;;15.52;1.45;;;;;;;;;;5019916;28;20046;-43
2021/01/20 02:55:22;;;;;;;10.85;1.20;;;;;;;;;;5017119;28;20481;-43
2021/01/20 02:57:54;;;;;;;6.68;1.30;;;;;;;;;;5014543;28;20045;-47
2021/01/20 03:00:21;;;;;;;11.38;1.15;;;;;;;;;;5014715;28;20030;-44
2021/01/20 03:02:50;;;;;;;16.98;1.83;;;;;;;;;;5014576;28;20470;-45
2021/01/20 03:05:21;;;;;;;12.05;1.70;;;;;;;;;;4996879;28;20029;-44
2021/01/20 03:07:50;;;;;;;10.68;1.25;;;;;;;;;;5014579;28;20033;-44
2021/01/20 03:10:18;;;;;;;8.50;1.20;;;;;;;;;;5014165;28;20038;-45
2021/01/20 03:12:45;;;;;;;15.30;1.20;;;;;;;;;;5014244;28;20432;-43
2021/01/20 03:15:31;;;;;;;4.45;1.02;;;;;;;;;;5014313;28;20033;-45
2021/01/20 03:17:58;;;;;;;11.10;1.33;;;;;;;;;;5014318;28;20058;-45
2021/01/20 03:20:25;;;;;;;11.23;1.05;;;;;;;;;;5014317;28;20076;-45
2021/01/20 03:22:52;;;;;;;5.90;0.90;;;;;;;;;;5014068;28;20087;-43
2021/01/20 03:25:19;;;;;;;4.63;1.15;;;;;;;;;;5014266;28;20033;-44
2021/01/20 03:27:46;;;;;;;7.10;1.65;;;;;;;;;;4997158;28;20030;-44
2021/01/20 03:30:14;;;;;;;4.93;1.17;;;;;;;;;;5014118;28;20046;-44
2021/01/20 03:32:41;;;;;;;9.13;0.98;;;;;;;;;;5014135;28;20018;-44
2021/01/20 03:35:08;;;;;;;4.68;0.88;;;;;;;;;;5014255;28;20029;-44
2021/01/20 03:37:35;;;;;;;4.22;0.93;;;;;;;;;;5013914;28;20026;-44
2021/01/20 03:40:03;;;;;;;4.50;0.90;;;;;;;;;;4996447;28;20025;-45
2021/01/20 03:42:30;;;;;;;4.68;1.05;;;;;;;;;;4996518;28;20022;-43
2021/01/20 03:44:57;;;;;;;3.15;1.00;;;;;;;;;;5014018;28;20033;-44
2021/01/20 03:47:24;;;;;;;10.55;1.10;;;;;;;;;;5013619;28;20018;-43
2021/01/20 03:49:51;;;;;;;12.20;1.40;;;;;;;;;;5013378;28;20096;-43
2021/01/20 03:52:18;;;;;;;6.07;1.20;;;;;;;;;;5013731;28;20026;-44
2021/01/20 03:54:46;;;;;;;7.80;1.13;;;;;;;;;;5013727;28;20041;-44
2021/01/20 03:57:13;;;;;;;10.63;1.30;;;;;;;;;;5013929;28;20366;-45
2021/01/20 03:59:40;;;;;;;8.40;1.02;;;;;;;;;;5013435;28;20037;-44
2021/01/20 04:02:07;;;;;;;9.55;1.35;;;;;;;;;;5013704;28;20504;-44
2021/01/20 04:04:34;;;;;;;6.85;0.90;;;;;;;;;;5013681;28;20114;-45
2021/01/20 04:07:04;;;;;;;12.35;1.10;;;;;;;;;;4995755;28;20036;-44
2021/01/20 04:09:31;;;;;;;9.25;1.15;;;;;;;;;;5013299;28;20038;-44
2021/01/20 04:11:58;;;;;;;4.53;0.95;;;;;;;;;;5013527;28;20543;-44
2021/01/20 04:14:25;;;;;;;7.30;0.80;;;;;;;;;;5013603;28;20108;-45
2021/01/20 04:16:52;;;;;;;8.27;0.95;;;;;;;;;;5013435;28;20018;-45
2021/01/20 04:19:19;;;;;;;11.02;1.13;;;;;;;;;;5012939;28;20087;-44
2021/01/20 04:21:49;;;;;;;5.80;1.25;;;;;;;;;;5013363;28;20103;-45
2021/01/20 04:24:16;;;;;;;6.53;1.00;;;;;;;;;;5013226;28;20013;-45
2021/01/20 04:26:44;;;;;;;4.95;1.10;;;;;;;;;;5013221;28;20029;-44
2021/01/20 04:29:16;;;;;;;6.32;1.20;;;;;;;;;;5013186;28;20369;-45
2021/01/20 04:31:43;;;;;;;10.68;1.75;;;;;;;;;;5013043;28;20464;-43
2021/01/20 04:34:10;;;;;;;7.00;1.08;;;;;;;;;;5013031;28;20083;-45
2021/01/20 04:36:37;;;;;;;11.25;1.13;;;;;;;;;;5013139;28;20056;-45
2021/01/20 04:39:05;;;;;;;8.65;1.13;;;;;;;;;;5012997;28;20029;-43
2021/01/20 04:41:33;;;;;;;9.93;0.98;;;;;;;;;;5012916;28;20022;-44
2021/01/20 04:44:00;;;;;;;8.40;1.75;;;;;;;;;;5013080;28;20028;-48
2021/01/20 04:46:29;;;;;;;7.75;1.10;;;;;;;;;;5012848;28;20414;-47
2021/01/20 04:48:57;;;;;;;4.05;0.90;;;;;;;;;;5012581;28;20029;-48
2021/01/20 04:51:24;;;;;;;6.68;0.90;;;;;;;;;;5012873;28;20034;-45
2021/01/20 04:53:57;;;;;;;10.32;1.08;;;;;;;;;;5012939;28;20076;-45
2021/01/20 04:56:23;;;;;;;;;;;;;;;;;;5013235;28;20549;-44
2021/01/20 04:58:55;;;;;;;7.07;0.90;;;;;;;;;;5012712;28;19913;-42
2021/01/20 05:01:22;;;;;;;5.10;1.02;;;;;;;;;;5012127;28;20418;-46
2021/01/20 05:03:49;;;;;;;6.75;1.10;;;;;;;;;;4994966;28;20057;-44
2021/01/20 05:06:16;;;;;;;6.78;0.90;;;;;;;;;;5012594;28;20010;-42
2021/01/20 05:08:43;;;;;;;3.75;0.95;;;;;;;;;;5012818;28;20030;-43
2021/01/20 05:11:10;;;;;;;3.83;0.82;;;;;;;;;;5012617;28;20041;-43
2021/01/20 05:13:37;;;;;;;6.22;1.20;;;;;;;;;;4994922;28;20500;-45
2021/01/20 05:16:04;;;;;;;7.82;1.15;;;;;;;;;;4995196;28;20034;-43
2021/01/20 05:18:47;;;;;;;8.38;1.20;;;;;;;;;;5012006;28;20029;-44
2021/01/20 05:21:17;;;;;;;7.07;0.80;;;;;;;;;;5012452;28;20022;-44
2021/01/20 05:23:44;;;;;;;3.55;0.95;;;;;;;;;;5012406;28;20038;-44
2021/01/20 05:26:11;;;;;;;3.08;1.10;;;;;;;;;;5012655;28;20022;-42
2021/01/20 05:28:38;;;;;;;5.85;1.20;;;;;;;;;;5012336;28;20026;-44
2021/01/20 05:31:05;;;;;;;7.97;0.98;;;;;;;;;;5012298;28;20022;-44
2021/01/20 05:33:36;;;;;;;5.28;1.25;;;;;;;;;;5012645;28;20080;-43
2021/01/20 05:36:13;;;;;;;5.38;1.10;;;;;;;;;;5012541;28;20022;-45
2021/01/20 05:38:43;;;;;;;5.32;1.30;;;;;;;;;;5012360;28;20024;-43
2021/01/20 05:41:19;;;;;;;10.05;1.02;;;;;;;;;;5012204;28;20112;-43
2021/01/20 05:43:46;;;;;;;6.65;1.30;;;;;;;;;;5012256;28;20022;-43
2021/01/20 05:46:14;;;;;;;7.68;0.93;;;;;;;;;;5011978;28;20033;-45
2021/01/20 05:48:47;;;;;;;6.55;1.02;;;;;;;;;;5012051;28;20022;-45
2021/01/20 05:51:14;;;;;;;4.97;0.95;;;;;;;;;;5012049;28;20490;-44
2021/01/20 05:53:52;;;;;;;3.35;1.02;;;;;;;;;;5012282;28;20393;-42
2021/01/20 05:56:28;;;;;;;6.78;1.05;;;;;;;;;;5012230;28;20022;-42
2021/01/20 05:58:56;;;;;;;4.28;1.00;;;;;;;;;;5012253;28;20162;-45
2021/01/20 06:01:23;;;;;;;3.63;1.08;;;;;;;;;;5012067;28;20026;-45
2021/01/20 06:03:50;;;;;;;4.90;0.90;;;;;;;;;;5011969;28;20026;-43
2021/01/20 06:06:18;;;;;;;8.77;1.10;;;;;;;;;;5012062;28;20381;-43
2021/01/20 06:08:46;;;;;;;5.15;0.80;;;;;;;;;;5011723;28;20019;-44
2021/01/20 06:11:13;;;;;;;9.88;1.55;;;;;;;;;;5012817;28;20474;-44
2021/01/20 06:13:40;;;;;;;7.55;1.20;;;;;;;;;;5015856;28;20485;-44
2021/01/20 06:16:18;;;;;;;4.68;0.95;;;;;;;;;;5015533;28;20032;-42
2021/01/20 06:18:49;;;;;;;6.88;1.42;;;;;;;;;;5015101;28;20397;-44
2021/01/20 06:21:17;;;;;;;5.32;0.90;;;;;;;;;;5015444;28;20073;-44
2021/01/20 06:24:02;;;;;;;9.10;1.23;;;;;;;;;;5015535;28;20022;-43
2021/01/20 06:26:29;;;;;;;5.00;1.30;;;;;;;;;;5015573;28;20022;-43
2021/01/20 06:29:01;;;;;;;8.43;1.13;;;;;;;;;;4997659;28;20425;-44
2021/01/20 06:31:29;;;;;;;5.70;1.20;;;;;;;;;;5015004;28;20929;-44
2021/01/20 06:33:56;;;;;;;4.70;1.27;;;;;;;;;;5015309;28;20038;-44
2021/01/20 06:36:33;;;;;;;6.85;1.20;;;;;;;;;;5015172;28;20064;-43
2021/01/20 06:39:00;;;;;;;4.55;0.98;;;;;;;;;;4997639;28;20088;-42
2021/01/20 06:41:37;;;;;;;4.60;1.15;;;;;;;;;;5015081;28;20010;-45
2021/01/20 06:44:11;;;;;;;6.55;0.63;;;;;;;;;;4997623;28;20036;-44
2021/01/20 06:46:39;;;;;;;3.40;1.08;;;;;;;;;;5015118;28;20045;-44
2021/01/20 06:49:06;;;;;;;5.60;1.10;;;;;;;;;;5014927;28;20076;-44
2021/01/20 06:51:33;;;;;;;5.85;0.98;;;;;;;;;;5014992;28;20025;-44
2021/01/20 06:54:01;;;;;;;5.72;1.10;;;;;;;;;;5015014;28;20072;-43
2021/01/20 06:56:34;;;;;;;3.28;1.13;;;;;;;;;;5014903;28;20025;-44
2021/01/20 06:59:19;;;;;;;6.10;1.02;;;;;;;;;;5014878;28;20033;-45
2021/01/20 07:02:04;;;;;;;4.53;1.05;;;;;;;;;;5014844;28;20113;-44
2021/01/20 07:04:40;;;;;;;4.35;1.10;;;;;;;;;;5014708;28;20029;-45
2021/01/20 07:07:14;;;;;;;8.45;1.38;;;;;;;;;;5014631;28;20045;-43
2021/01/20 07:09:50;;;;;;;4.60;1.10;;;;;;;;;;5014384;28;20038;-44
2021/01/20 07:12:23;;;;;;;8.88;1.33;;;;;;;;;;5014548;28;20030;-44
2021/01/20 07:14:51;;;;;;;5.47;1.00;;;;;;;;;;5014541;28;20036;-44
2021/01/20 07:17:18;;;;;;;5.10;1.25;;;;;;;;;;5014291;28;20026;-46
2021/01/20 07:19:46;;;;;;;8.10;1.50;;;;;;;;;;5014303;28;20046;-44
2021/01/20 07:22:14;;;;;;;3.72;1.20;;;;;;;;;;5014039;28;20025;-43
2021/01/20 07:24:41;;;;;;;3.13;1.10;;;;;;;;;;5013802;28;20028;-43
2021/01/20 07:27:09;;;;;;;4.70;1.10;;;;;;;;;;5014395;28;20018;-47
2021/01/20 07:29:36;;;;;;;6.00;1.30;;;;;;;;;;5014107;28;20022;-45
2021/01/20 07:32:04;;;;;;;5.68;1.30;;;;;;;;;;4996958;28;20442;-46
2021/01/20 07:34:38;;;;;;;5.05;1.40;;;;;;;;;;5014378;28;20079;-48
2021/01/20 07:37:15;;;;;;;7.13;1.33;;;;;;;;;;5014389;28;20109;-46
2021/01/20 07:39:43;;;;;;;2.15;0.80;;;;;;;;;;4996615;28;20037;-44
2021/01/20 07:42:10;;;;;;;7.07;1.40;;;;;;;;;;5013968;28;20033;-46
2021/01/20 07:44:37;;;;;;;5.32;1.30;;;;;;;;;;4996518;28;20084;-44
2021/01/20 07:47:06;;;;;;;7.07;1.23;;;;;;;;;;5013979;28;20018;-44
2021/01/20 07:49:34;;;;;;;3.50;1.50;;;;;;;;;;5013728;28;20156;-48
2021/01/20 07:52:05;;;;;;;5.40;1.08;;;;;;;;;;5013834;28;20033;-46
2021/01/20 07:54:45;;;;;;;7.35;1.20;;;;;;;;;;5014126;28;20033;-43
2021/01/20 07:57:21;;;;;;;6.20;1.52;;;;;;;;;;5013804;28;20090;-44
2021/01/20 08:00:03;;;;;;;6.60;1.27;;;;;;;;;;4996248;28;20030;-44
2021/01/20 08:02:30;;;;;;;6.38;1.38;;;;;;;;;;5013655;28;20121;-45
2021/01/20 08:05:00;;;;;;;8.40;1.42;;;;;;;;;;5013557;28;20473;-44
2021/01/20 08:07:28;;;;;;;4.85;1.40;;;;;;;;;;5013702;28;20037;-47
2021/01/20 08:09:55;;;;;;;6.50;2.45;;;;;;;;;;5013226;28;20064;-45
2021/01/20 08:12:27;;;;;;;6.90;1.38;;;;;;;;;;5013435;28;20026;-44
2021/01/20 08:14:54;;;;;;;7.32;1.10;;;;;;;;;;5013397;28;20022;-43
2021/01/20 08:17:21;;;;;;;5.40;1.45;;;;;;;;;;5013593;28;20037;-43
2021/01/20 08:19:49;;;;;;;8.13;1.50;;;;;;;;;;5012756;28;20050;-43
2021/01/20 08:22:17;;;;;;;7.05;1.50;;;;;;;;;;5013226;28;20109;-42
2021/01/20 08:24:51;;;;;;;8.18;1.40;;;;;;;;;;5013421;28;20018;-44
2021/01/20 08:27:28;;;;;;;6.32;1.23;;;;;;;;;;5013265;28;20022;-44
2021/01/20 08:29:56;;;;;;;5.22;1.10;;;;;;;;;;5012961;28;20363;-45
2021/01/20 08:32:24;;;;;;;6.47;1.20;;;;;;;;;;5013029;28;20488;-43
2021/01/20 08:34:51;;;;;;;5.75;1.23;;;;;;;;;;5013117;28;20048;-44
2021/01/20 08:37:21;;;;;;;4.35;1.20;;;;;;;;;;5013056;28;20029;-45
2021/01/20 08:39:58;;;;;;;6.00;1.92;;;;;;;;;;5013054;28;20029;-44
2021/01/20 08:42:37;;;;;;;4.82;1.10;;;;;;;;;;4995308;28;20014;-44
2021/01/20 08:45:07;;;;;;;5.70;1.38;;;;;;;;;;5013092;28;20045;-44
2021/01/20 08:47:47;;;;;;;8.15;1.20;;;;;;;;;;5012638;28;20105;-43
2021/01/20 08:50:34;;;;;;;4.90;1.95;;;;;;;;;;5012900;28;20106;-43
2021/01/20 08:53:02;;;;;;;4.97;1.48;;;;;;;;;;5011519;28;20034;-45
2021/01/20 08:55:33;;;;;;;5.22;1.00;;;;;;;;;;5012853;28;20527;-45
2021/01/20 08:58:18;;;;;;;6.70;1.83;;;;;;;;;;5012780;28;20123;-45
2021/01/20 09:00:45;;;;;;;6.50;1.70;;;;;;;;;;5012922;28;20030;-43
2021/01/20 09:03:16;;;;;;;5.90;1.55;;;;;;;;;;4995188;28;20474;-43
2021/01/20 09:05:44;;;;;;;12.00;1.80;;;;;;;;;;5012655;28;20018;-44
2021/01/20 09:08:11;;;;;;;8.35;1.55;;;;;;;;;;5012515;28;20462;-43
2021/01/20 09:10:38;;;;;;;9.45;2.08;;;;;;;;;;5012819;28;20030;-45
2021/01/20 09:13:05;;;;;;;8.40;2.17;;;;;;;;;;5012462;28;20054;-45
2021/01/20 09:15:33;;;;;;;8.93;1.88;;;;;;;;;;5012455;28;20026;-45
2021/01/20 09:18:00;;;;;;;34.25;2.92;;;;;;;;;;5012548;28;20022;-44
2021/01/20 09:20:27;;;;;;;30.85;2.70;;;;;;;;;;5012198;28;20198;-45
2021/01/20 09:22:55;;;;;;;21.35;3.05;;;;;;;;;;5012624;28;20076;-44
2021/01/20 09:25:22;;;;;;;26.77;4.13;;;;;;;;;;5012582;28;20018;-43
2021/01/20 09:27:49;;;;;;;13.75;3.05;;;;;;;;;;5012439;28;20072;-43
2021/01/20 09:30:16;;;;;;;115.63;10.02;;;;;;;;;;5012459;28;20061;-45
2021/01/20 09:32:43;;;;;;;157.38;13.05;;;;;;;;;;5012497;28;20053;-44
2021/01/20 09:35:13;;;;;;;113.53;10.55;;;;;;;;;;5012298;28;20053;-45
2021/01/20 09:37:41;;;;;;;71.85;6.72;;;;;;;;;;5012297;28;20045;-44
2021/01/20 09:40:12;;;;;;;50.70;5.38;;;;;;;;;;5012525;28;20100;-44
2021/01/20 09:42:40;;;;;;;38.17;4.10;;;;;;;;;;5012215;28;20076;-42
2021/01/20 09:45:09;;;;;;;31.80;3.85;;;;;;;;;;5011425;28;20028;-42
2021/01/20 09:47:40;;;;;;;37.42;3.75;;;;;;;;;;5015396;28;20056;-43
2021/01/20 09:50:08;;;;;;;33.25;4.55;;;;;;;;;;5016203;28;20065;-44
2021/01/20 09:52:35;;;;;;;25.90;4.68;;;;;;;;;;5016088;28;20022;-44
2021/01/20 09:55:03;;;;;;;17.40;3.88;;;;;;;;;;5015995;28;20076;-47
2021/01/20 09:57:30;;;;;;;19.35;3.92;;;;;;;;;;5016103;28;20026;-47
2021/01/20 09:59:57;;;;;;;17.58;3.40;;;;;;;;;;5015880;28;20018;-45
2021/01/20 10:02:24;;;;;;;21.30;3.35;;;;;;;;;;5009424;28;20021;-44
2021/01/20 10:04:51;;;;;;;21.20;3.92;;;;;;;;;;4999109;28;20027;-45
2021/01/20 10:07:19;;;;;;;23.65;3.70;;;;;;;;;;4995977;28;20018;-45
2021/01/20 10:09:46;;;;;;;24.13;3.53;;;;;;;;;;4995968;28;20031;-45
2021/01/20 10:12:18;;;;;;;27.52;6.43;;;;;;;;;;4996042;28;20023;-47
2021/01/20 10:14:46;;;;;;;27.17;5.60;;;;;;;;;;4995915;28;20026;-48
2021/01/20 10:17:13;;;;;;;20.88;4.90;;;;;;;;;;4995879;28;20098;-43
2021/01/20 10:19:41;;;;;;;30.50;3.67;;;;;;;;;;4995402;28;20051;-44
2021/01/20 10:22:08;;;;;;;23.23;4.13;;;;;;;;;;4995774;28;20088;-44
2021/01/20 10:24:35;;;;;;;11.68;2.95;;;;;;;;;;4995640;28;20466;-43
2021/01/20 10:27:02;;;;;;;14.40;2.85;;;;;;;;;;4995447;28;20033;-46
2021/01/20 10:29:29;;;;;;;16.33;2.70;;;;;;;;;;4996601;28;20034;-43
2021/01/20 10:31:56;;;;;;;19.13;2.30;;;;;;;;;;5005066;28;20114;-44
2021/01/20 10:34:24;;;;;;;23.80;2.75;;;;;;;;;;4995556;28;20035;-42
2021/01/20 10:36:51;;;;;;;15.32;2.10;;;;;;;;;;4995484;28;20029;-44
2021/01/20 10:39:18;;;;;;;13.30;1.90;;;;;;;;;;4995257;28;20474;-43
2021/01/20 10:41:45;;;;;;;6.13;1.98;;;;;;;;;;4995382;28;20022;-45
2021/01/20 10:44:12;;;;;;;6.45;2.17;;;;;;;;;;4995359;28;20085;-45
2021/01/20 10:46:39;;;;;;;17.80;2.22;;;;;;;;;;4995358;28;20500;-44
2021/01/20 10:49:06;;;;;;;8.15;1.70;;;;;;;;;;4995106;28;20034;-44
2021/01/20 10:51:36;;;;;;;14.70;2.63;;;;;;;;;;4995407;28;20393;-45
2021/01/20 10:54:04;;;;;;;21.45;2.58;;;;;;;;;;4995127;28;20047;-44
2021/01/20 10:56:31;;;;;;;16.85;2.17;;;;;;;;;;4995039;28;20073;-44
2021/01/20 10:58:58;;;;;;;17.90;2.60;;;;;;;;;;4993938;28;20417;-44
2021/01/20 11:01:25;;;;;;;20.25;2.33;;;;;;;;;;4995168;28;20050;-45
2021/01/20 11:03:52;;;;;;;12.65;2.28;;;;;;;;;;4995060;28;20474;-44
2021/01/20 11:06:19;;;;;;;17.55;2.63;;;;;;;;;;4995152;28;20382;-44
2021/01/20 11:08:46;;;;;;;17.95;2.80;;;;;;;;;;4994848;28;20459;-43
2021/01/20 11:11:14;;;;;;;15.50;2.45;;;;;;;;;;4994763;28;20491;-44
2021/01/20 11:13:42;;;;;;;23.05;2.47;;;;;;;;;;4995015;28;20026;-44
2021/01/20 11:16:10;;;;;;;23.20;2.47;;;;;;;;;;4994946;28;20022;-44
2021/01/20 11:18:38;;;;;;;18.00;2.47;;;;;;;;;;4994330;28;20402;-44
2021/01/20 11:21:05;;;;;;;17.33;2.40;;;;;;;;;;4994662;28;20038;-45
2021/01/20 11:23:38;;;;;;;22.05;2.85;;;;;;;;;;4994774;28;20042;-44
2021/01/20 11:26:05;;;;;;;13.05;2.05;;;;;;;;;;4994600;28;20062;-45
2021/01/20 11:28:33;;;;;;;25.50;2.42;;;;;;;;;;4994550;28;20355;-45
2021/01/20 11:31:01;;;;;;;15.05;1.80;;;;;;;;;;4994533;28;20042;-46
2021/01/20 11:33:28;;;;;;;25.02;2.22;;;;;;;;;;4994319;28;20434;-44
2021/01/20 11:35:55;;;;;;;24.38;2.30;;;;;;;;;;4994349;28;20027;-43
2021/01/20 11:38:22;;;;;;;17.45;2.72;;;;;;;;;;4994488;28;20022;-44
2021/01/20 11:40:49;;;;;;;17.27;2.50;;;;;;;;;;4994200;28;20026;-44
2021/01/20 11:43:16;;;;;;;21.50;2.60;;;;;;;;;;4994276;28;20030;-45
2021/01/20 11:45:43;;;;;;;34.83;2.85;;;;;;;;;;4994330;28;20030;-43
2021/01/20 11:48:10;;;;;;;12.32;2.05;;;;;;;;;;4994125;28;20094;-44
2021/01/20 11:50:37;;;;;;;12.15;1.75;;;;;;;;;;4994098;28;20030;-42
2021/01/20 11:53:04;;;;;;;18.98;2.55;;;;;;;;;;4994131;28;20018;-43
2021/01/20 11:55:31;;;;;;;22.80;2.53;;;;;;;;;;4993979;28;20042;-44
2021/01/20 11:57:58;;;;;;;28.20;2.97;;;;;;;;;;4993976;28;20022;-44
2021/01/20 12:00:26;;;;;;;45.40;3.42;;;;;;;;;;4992840;28;20355;-44
2021/01/20 12:02:53;;;;;;;42.08;3.15;;;;;;;;;;4994076;28;20027;-44
2021/01/20 12:05:20;;;;;;;28.13;3.67;;;;;;;;;;4993676;28;20080;-45
2021/01/20 12:07:47;;;;;;;27.25;2.47;;;;;;;;;;4993706;28;20470;-44
2021/01/20 12:10:15;;;;;;;22.35;2.38;;;;;;;;;;4993227;28;20081;-45
2021/01/20 12:12:42;;;;;;;16.83;2.22;;;;;;;;;;4993747;28;20030;-48
2021/01/20 12:15:10;;;;;;;18.35;2.00;;;;;;;;;;4993600;28;20018;-44
2021/01/20 12:17:37;;;;;;;27.30;1.95;;;;;;;;;;4993912;28;20378;-45
2021/01/20 12:20:05;;;;;;;13.02;2.28;;;;;;;;;;4991948;28;20057;-47
2021/01/20 12:22:32;;;;;;;14.55;2.00;;;;;;;;;;4993467;28;20037;-43
2021/01/20 12:24:59;;;;;;;12.10;2.15;;;;;;;;;;4993521;28;20025;-48
2021/01/20 12:27:26;;;;;;;14.00;2.00;;;;;;;;;;4993445;28;20022;-44
2021/01/20 12:29:53;;;;;;;17.02;2.20;;;;;;;;;;4993263;28;20023;-45
2021/01/20 12:32:20;;;;;;;22.95;3.20;;;;;;;;;;4992424;28;20084;-47
2021/01/20 12:34:47;;;;;;;31.95;2.75;;;;;;;;;;4993215;28;20021;-44
2021/01/20 12:37:14;;;;;;;27.27;2.50;;;;;;;;;;4992912;28;20486;-44
2021/01/20 12:39:41;;;;;;;22.25;2.78;;;;;;;;;;4993296;28;20022;-46
2021/01/20 12:42:08;;;;;;;30.80;3.13;;;;;;;;;;4993113;28;20109;-45
2021/01/20 12:44:35;;;;;;;20.95;2.53;;;;;;;;;;4993166;28;20363;-46
2021/01/20 12:47:02;;;;;;;27.10;2.97;;;;;;;;;;4976041;28;20014;-44
2021/01/20 12:49:29;;;;;;;17.38;2.60;;;;;;;;;;4992946;28;20081;-46
2021/01/20 12:51:56;;;;;;;25.73;3.17;;;;;;;;;;4993046;28;20029;-44
2021/01/20 12:54:23;;;;;;;25.85;2.55;;;;;;;;;;4993015;28;20105;-45
2021/01/20 12:56:50;;;;;;;12.82;2.15;;;;;;;;;;4992899;28;20045;-43
2021/01/20 12:59:17;;;;;;;10.63;1.55;;;;;;;;;;4992931;28;20022;-47
2021/01/20 13:01:44;;;;;;;14.32;1.83;;;;;;;;;;5017754;28;20026;-41
2021/01/20 13:04:11;;;;;;;16.08;2.25;;;;;;;;;;5015613;28;20030;-46
2021/01/20 13:06:38;;;;;;;12.10;1.80;;;;;;;;;;5018091;28;20022;-44
2021/01/20 13:09:05;;;;;;;8.57;1.80;;;;;;;;;;5022080;28;20060;-44
2021/01/20 13:11:33;;;;;;;9.95;1.88;;;;;;;;;;5012047;28;20405;-41
2021/01/20 13:14:00;;;;;;;19.83;1.60;;;;;;;;;;5014592;28;20029;-44
2021/01/20 13:16:27;;;;;;;17.85;2.00;;;;;;;;;;5021871;28;20033;-41
2021/01/20 13:18:54;;;;;;;15.07;1.77;;;;;;;;;;5017647;28;20393;-43
2021/01/20 13:21:21;;;;;;;20.88;1.90;;;;;;;;;;5022256;28;20052;-44
2021/01/20 13:23:48;;;;;;;9.20;2.00;;;;;;;;;;5005348;28;20018;-45
2021/01/20 13:26:16;;;;;;;18.70;2.75;;;;;;;;;;5025085;28;20029;-44
2021/01/20 13:28:43;;;;;;;29.67;3.47;;;;;;;;;;5024428;28;20026;-43
2021/01/20 13:31:10;;;;;;;32.72;4.28;;;;;;;;;;5001104;28;20061;-44
2021/01/20 13:33:37;;;;;;;23.88;2.97;;;;;;;;;;5024357;28;20504;-43
2021/01/20 13:36:08;;;;;;;14.82;2.55;;;;;;;;;;5025009;28;20021;-43
2021/01/20 13:38:35;;;;;;;14.40;2.60;;;;;;;;;;5025406;28;20018;-45
2021/01/20 13:41:02;;;;;;;23.35;2.55;;;;;;;;;;5021321;28;20109;-44
2021/01/20 13:43:29;;;;;;;26.48;2.72;;;;;;;;;;5016993;28;20122;-47
2021/01/20 13:45:56;;;;;;;19.77;3.28;;;;;;;;;;5021358;28;20041;-43
2021/01/20 13:48:23;;;;;;;15.00;2.22;;;;;;;;;;5018788;28;21284;-41
2021/01/20 13:50:50;;;;;;;7.43;2.00;;;;;;;;;;5022371;28;20497;-41
2021/01/20 13:53:17;;;;;;;16.33;2.33;;;;;;;;;;5024211;28;20397;-43
2021/01/20 13:55:44;;;;;;;14.32;2.08;;;;;;;;;;5028968;28;20033;-44
2021/01/20 13:58:13;;;;;;;12.07;2.17;;;;;;;;;;5023441;28;20472;-41
2021/01/20 14:00:40;;;;;;;18.17;2.40;;;;;;;;;;5021731;28;20018;-46
2021/01/20 14:03:07;;;;;;;10.73;2.20;;;;;;;;;;5004942;28;20072;-46
2021/01/20 14:05:34;;;;;;;12.30;2.60;;;;;;;;;;5025616;28;20018;-46
2021/01/20 14:08:01;;;;;;;12.93;2.60;;;;;;;;;;5023328;28;20060;-44
2021/01/20 14:10:28;;;;;;;19.52;2.78;;;;;;;;;;5027418;28;20041;-43
2021/01/20 14:12:55;;;;;;;14.27;2.15;;;;;;;;;;5027060;28;20068;-43
2021/01/20 14:15:22;;;;;;;13.02;2.05;;;;;;;;;;5012378;28;20029;-44
2021/01/20 14:17:50;;;;;;;15.68;1.92;;;;;;;;;;5015069;28;20060;-43
2021/01/20 14:20:17;;;;;;;16.27;2.33;;;;;;;;;;5014411;28;20054;-42
2021/01/20 14:22:44;;;;;;;15.70;2.42;;;;;;;;;;5014758;28;20039;-44
2021/01/20 14:25:11;;;;;;;15.82;2.38;;;;;;;;;;5014395;28;20037;-43
2021/01/20 14:27:38;;;;;;;15.10;2.47;;;;;;;;;;5013089;28;20033;-43
2021/01/20 14:30:08;;;;;;;9.75;2.10;;;;;;;;;;5014554;28;20037;-40
2021/01/20 14:32:38;;;;;;;10.50;2.05;;;;;;;;;;5015027;28;20018;-42
2021/01/20 14:35:06;;;;;;;11.98;2.10;;;;;;;;;;5014830;28;20061;-40
2021/01/20 14:37:32;;;;;;;10.52;2.00;;;;;;;;;;5013611;28;20436;-40
2021/01/20 14:40:00;;;;;;;12.77;2.35;;;;;;;;;;5013842;28;20032;-41
2021/01/20 14:42:27;;;;;;;10.45;2.00;;;;;;;;;;5014964;28;20022;-41
2021/01/20 14:44:54;;;;;;;12.27;1.80;;;;;;;;;;4997389;28;20057;-42
2021/01/20 14:47:21;;;;;;;13.18;2.35;;;;;;;;;;5014519;28;20018;-39